Terminal Aerodrome Forecast
Issued by NWS

Home | Current Version | Previous Version | Graphics & Text | Print | Product List | Glossary On
Versions: 1 2 3 4 5 6 7 8 9 10 11 12 13 14 15 16 17 18 19 20 21 22 23 24 25
665
FTUS43 KLSX 291256 AAA
TAFSUS
TAF AMD
KSUS 291256Z 2913/3012 07012G18KT 4SM TSRA BR BKN007 OVC012CB
     FM291900 09012G18KT 3SM SHRA OVC012
      TEMPO 2919/2923 2SM TSRA OVC012CB
     FM292300 10011KT 3SM SHRA VCTS OVC020CB
     FM300200 12010KT 3SM SHRA OVC020=

USA.gov is the U.S. government's official web portal to all federal, state and local government web resources and services.